sensor_id;sensor_type;location;lat;lon;timestamp;P1;durP1;ratioP1;P2;durP2;ratioP2
78968;SDS011;68369;51.050;17.018;2023-04-24T00:09:12;13.50;;;9.10;;
78968;SDS011;68369;51.050;17.018;2023-04-24T00:11:57;13.20;;;9.10;;
78968;SDS011;68369;51.050;17.018;2023-04-24T00:14:42;13.90;;;9.20;;
78968;SDS011;68369;51.050;17.018;2023-04-24T00:17:27;16.10;;;9.10;;
78968;SDS011;68369;51.050;17.018;2023-04-24T00:20:12;15.70;;;9.80;;
78968;SDS011;68369;51.050;17.018;2023-04-24T00:22:59;15.60;;;10.20;;
78968;SDS011;68369;51.050;17.018;2023-04-24T00:28:45;15.30;;;9.70;;
78968;SDS011;68369;51.050;17.018;2023-04-24T00:31:31;14.90;;;9.00;;
78968;SDS011;68369;51.050;17.018;2023-04-24T00:37:09;12.70;;;8.10;;
78968;SDS011;68369;51.050;17.018;2023-04-24T00:39:55;13.20;;;8.10;;
78968;SDS011;68369;51.050;17.018;2023-04-24T00:42:41;13.10;;;8.90;;
78968;SDS011;68369;51.050;17.018;2023-04-24T00:51:35;16.60;;;8.80;;
78968;SDS011;68369;51.050;17.018;2023-04-24T00:54:24;11.10;;;7.20;;
78968;SDS011;68369;51.050;17.018;2023-04-24T01:07:17;11.50;;;8.30;;
78968;SDS011;68369;51.050;17.018;2023-04-24T01:10:06;10.50;;;7.50;;
78968;SDS011;68369;51.050;17.018;2023-04-24T01:12:53;12.50;;;8.40;;
78968;SDS011;68369;51.050;17.018;2023-04-24T01:15:38;11.50;;;6.90;;
78968;SDS011;68369;51.050;17.018;2023-04-24T01:18:24;13.70;;;7.90;;
78968;SDS011;68369;51.050;17.018;2023-04-24T01:34:37;12.30;;;8.10;;
78968;SDS011;68369;51.050;17.018;2023-04-24T01:37:24;18.20;;;8.90;;
78968;SDS011;68369;51.050;17.018;2023-04-24T01:40:09;12.20;;;7.40;;
78968;SDS011;68369;51.050;17.018;2023-04-24T01:42:55;11.30;;;7.40;;
78968;SDS011;68369;51.050;17.018;2023-04-24T02:22:21;10.50;;;7.40;;
78968;SDS011;68369;51.050;17.018;2023-04-24T02:25:08;11.50;;;7.30;;
78968;SDS011;68369;51.050;17.018;2023-04-24T02:27:54;11.50;;;7.20;;
78968;SDS011;68369;51.050;17.018;2023-04-24T02:30:40;12.30;;;7.00;;
78968;SDS011;68369;51.050;17.018;2023-04-24T02:33:25;16.30;;;8.00;;
78968;SDS011;68369;51.050;17.018;2023-04-24T02:36:10;10.30;;;7.40;;
78968;SDS011;68369;51.050;17.018;2023-04-24T02:44:54;11.10;;;7.10;;
78968;SDS011;68369;51.050;17.018;2023-04-24T02:47:39;11.10;;;7.20;;
78968;SDS011;68369;51.050;17.018;2023-04-24T02:50:24;11.40;;;7.60;;
78968;SDS011;68369;51.050;17.018;2023-04-24T02:53:09;11.90;;;7.80;;
78968;SDS011;68369;51.050;17.018;2023-04-24T02:55:55;10.60;;;7.60;;
78968;SDS011;68369;51.050;17.018;2023-04-24T02:58:40;15.00;;;8.00;;
78968;SDS011;68369;51.050;17.018;2023-04-24T03:04:18;13.70;;;7.10;;
78968;SDS011;68369;51.050;17.018;2023-04-24T03:07:05;14.00;;;8.00;;
78968;SDS011;68369;51.050;17.018;2023-04-24T03:09:51;11.20;;;7.50;;
78968;SDS011;68369;51.050;17.018;2023-04-24T03:12:36;10.60;;;7.50;;
78968;SDS011;68369;51.050;17.018;2023-04-24T03:18:12;11.00;;;7.50;;
78968;SDS011;68369;51.050;17.018;2023-04-24T03:20:57;9.30;;;7.00;;
78968;SDS011;68369;51.050;17.018;2023-04-24T03:23:42;9.40;;;6.80;;
78968;SDS011;68369;51.050;17.018;2023-04-24T03:26:27;9.30;;;6.60;;
78968;SDS011;68369;51.050;17.018;2023-04-24T03:29:12;10.50;;;6.80;;
78968;SDS011;68369;51.050;17.018;2023-04-24T03:31:57;10.10;;;7.10;;
78968;SDS011;68369;51.050;17.018;2023-04-24T03:37:36;11.60;;;8.40;;
78968;SDS011;68369;51.050;17.018;2023-04-24T03:40:22;12.10;;;7.10;;
78968;SDS011;68369;51.050;17.018;2023-04-24T03:43:07;10.00;;;7.10;;
78968;SDS011;68369;51.050;17.018;2023-04-24T03:45:52;12.20;;;7.50;;
78968;SDS011;68369;51.050;17.018;2023-04-24T03:51:47;11.70;;;7.60;;
78968;SDS011;68369;51.050;17.018;2023-04-24T03:54:35;10.10;;;7.70;;
78968;SDS011;68369;51.050;17.018;2023-04-24T04:10:28;15.30;;;7.10;;
78968;SDS011;68369;51.050;17.018;2023-04-24T04:13:14;10.40;;;7.70;;
78968;SDS011;68369;51.050;17.018;2023-04-24T04:16:00;8.40;;;6.30;;
78968;SDS011;68369;51.050;17.018;2023-04-24T04:25:14;8.80;;;6.10;;
78968;SDS011;68369;51.050;17.018;2023-04-24T04:28:01;9.10;;;6.60;;
78968;SDS011;68369;51.050;17.018;2023-04-24T04:30:46;9.60;;;6.90;;
78968;SDS011;68369;51.050;17.018;2023-04-24T04:39:47;9.60;;;7.20;;
78968;SDS011;68369;51.050;17.018;2023-04-24T04:45:55;9.10;;;6.50;;
78968;SDS011;68369;51.050;17.018;2023-04-24T04:48:41;10.30;;;6.70;;
78968;SDS011;68369;51.050;17.018;2023-04-24T04:51:26;10.40;;;7.00;;
78968;SDS011;68369;51.050;17.018;2023-04-24T04:54:11;10.90;;;7.00;;
78968;SDS011;68369;51.050;17.018;2023-04-24T05:02:57;11.20;;;6.80;;
78968;SDS011;68369;51.050;17.018;2023-04-24T05:06:03;8.50;;;6.60;;
78968;SDS011;68369;51.050;17.018;2023-04-24T05:08:48;10.50;;;6.90;;
78968;SDS011;68369;51.050;17.018;2023-04-24T05:11:33;8.10;;;5.90;;
78968;SDS011;68369;51.050;17.018;2023-04-24T05:14:19;9.40;;;5.90;;
78968;SDS011;68369;51.050;17.018;2023-04-24T05:17:04;7.90;;;5.80;;
78968;SDS011;68369;51.050;17.018;2023-04-24T05:19:49;10.10;;;6.50;;
78968;SDS011;68369;51.050;17.018;2023-04-24T05:22:36;11.00;;;6.60;;
78968;SDS011;68369;51.050;17.018;2023-04-24T05:25:44;9.50;;;6.80;;
78968;SDS011;68369;51.050;17.018;2023-04-24T05:28:31;9.40;;;6.10;;
78968;SDS011;68369;51.050;17.018;2023-04-24T05:31:18;10.10;;;6.60;;
78968;SDS011;68369;51.050;17.018;2023-04-24T05:43:51;7.10;;;4.50;;
78968;SDS011;68369;51.050;17.018;2023-04-24T05:46:41;5.80;;;4.50;;
78968;SDS011;68369;51.050;17.018;2023-04-24T05:49:26;7.40;;;4.00;;
78968;SDS011;68369;51.050;17.018;2023-04-24T05:52:11;6.10;;;3.50;;
78968;SDS011;68369;51.050;17.018;2023-04-24T05:58:12;4.90;;;3.60;;
78968;SDS011;68369;51.050;17.018;2023-04-24T06:00:58;4.70;;;3.70;;
78968;SDS011;68369;51.050;17.018;2023-04-24T06:06:37;6.40;;;3.90;;
78968;SDS011;68369;51.050;17.018;2023-04-24T06:19:06;5.20;;;3.30;;
78968;SDS011;68369;51.050;17.018;2023-04-24T06:21:52;5.60;;;4.50;;
78968;SDS011;68369;51.050;17.018;2023-04-24T06:46:28;5.80;;;4.00;;
78968;SDS011;68369;51.050;17.018;2023-04-24T06:49:14;7.20;;;3.60;;
78968;SDS011;68369;51.050;17.018;2023-04-24T06:52:01;7.80;;;4.70;;
78968;SDS011;68369;51.050;17.018;2023-04-24T06:54:47;7.60;;;4.20;;
78968;SDS011;68369;51.050;17.018;2023-04-24T06:57:32;5.00;;;2.40;;
78968;SDS011;68369;51.050;17.018;2023-04-24T07:00:18;7.80;;;3.90;;
78968;SDS011;68369;51.050;17.018;2023-04-24T07:03:04;5.30;;;4.10;;
78968;SDS011;68369;51.050;17.018;2023-04-24T07:05:52;8.30;;;4.50;;
78968;SDS011;68369;51.050;17.018;2023-04-24T07:08:40;6.10;;;4.10;;
78968;SDS011;68369;51.050;17.018;2023-04-24T07:11:26;5.50;;;4.10;;
78968;SDS011;68369;51.050;17.018;2023-04-24T07:14:14;5.30;;;3.30;;
78968;SDS011;68369;51.050;17.018;2023-04-24T07:16:59;4.10;;;3.30;;
78968;SDS011;68369;51.050;17.018;2023-04-24T07:19:44;6.20;;;4.00;;
78968;SDS011;68369;51.050;17.018;2023-04-24T07:28:46;4.40;;;3.40;;
78968;SDS011;68369;51.050;17.018;2023-04-24T07:31:36;4.30;;;3.10;;
78968;SDS011;68369;51.050;17.018;2023-04-24T07:34:25;3.60;;;2.80;;
78968;SDS011;68369;51.050;17.018;2023-04-24T07:37:16;4.80;;;3.30;;
78968;SDS011;68369;51.050;17.018;2023-04-24T07:42:48;4.80;;;3.20;;
78968;SDS011;68369;51.050;17.018;2023-04-24T07:48:28;5.40;;;3.50;;
78968;SDS011;68369;51.050;17.018;2023-04-24T07:51:20;7.60;;;4.30;;
78968;SDS011;68369;51.050;17.018;2023-04-24T07:54:05;5.00;;;3.20;;
78968;SDS011;68369;51.050;17.018;2023-04-24T07:56:50;5.60;;;3.60;;
78968;SDS011;68369;51.050;17.018;2023-04-24T08:02:50;6.30;;;4.40;;
78968;SDS011;68369;51.050;17.018;2023-04-24T08:05:38;5.20;;;3.50;;
78968;SDS011;68369;51.050;17.018;2023-04-24T08:08:25;4.00;;;3.10;;
78968;SDS011;68369;51.050;17.018;2023-04-24T08:14:11;6.50;;;3.70;;
78968;SDS011;68369;51.050;17.018;2023-04-24T08:16:59;5.80;;;3.50;;
78968;SDS011;68369;51.050;17.018;2023-04-24T08:19:56;7.40;;;4.20;;
78968;SDS011;68369;51.050;17.018;2023-04-24T08:28:28;5.00;;;3.70;;
78968;SDS011;68369;51.050;17.018;2023-04-24T08:31:16;6.60;;;3.70;;
78968;SDS011;68369;51.050;17.018;2023-04-24T08:40:14;4.60;;;3.70;;
78968;SDS011;68369;51.050;17.018;2023-04-24T08:43:07;6.00;;;4.50;;
78968;SDS011;68369;51.050;17.018;2023-04-24T08:55:08;6.50;;;3.40;;
78968;SDS011;68369;51.050;17.018;2023-04-24T08:57:55;5.10;;;3.10;;
78968;SDS011;68369;51.050;17.018;2023-04-24T09:03:33;4.10;;;3.10;;
78968;SDS011;68369;51.050;17.018;2023-04-24T09:06:20;5.40;;;3.60;;
78968;SDS011;68369;51.050;17.018;2023-04-24T09:09:06;4.90;;;3.60;;
78968;SDS011;68369;51.050;17.018;2023-04-24T09:14:34;5.70;;;3.60;;
78968;SDS011;68369;51.050;17.018;2023-04-24T09:17:38;4.40;;;3.40;;
78968;SDS011;68369;51.050;17.018;2023-04-24T09:20:24;7.30;;;4.10;;
78968;SDS011;68369;51.050;17.018;2023-04-24T09:23:10;5.20;;;3.40;;
78968;SDS011;68369;51.050;17.018;2023-04-24T09:38:15;7.70;;;4.30;;
78968;SDS011;68369;51.050;17.018;2023-04-24T09:41:01;7.60;;;4.70;;
78968;SDS011;68369;51.050;17.018;2023-04-24T09:46:41;6.90;;;4.50;;
78968;SDS011;68369;51.050;17.018;2023-04-24T09:55:29;5.40;;;3.90;;
78968;SDS011;68369;51.050;17.018;2023-04-24T10:04:35;5.60;;;3.60;;
78968;SDS011;68369;51.050;17.018;2023-04-24T10:07:21;7.10;;;3.50;;
78968;SDS011;68369;51.050;17.018;2023-04-24T10:10:06;5.70;;;4.30;;
78968;SDS011;68369;51.050;17.018;2023-04-24T10:25:52;3.00;;;2.20;;
78968;SDS011;68369;51.050;17.018;2023-04-24T10:28:38;5.00;;;4.00;;
78968;SDS011;68369;51.050;17.018;2023-04-24T10:34:29;5.60;;;3.20;;
78968;SDS011;68369;51.050;17.018;2023-04-24T10:40:07;6.10;;;4.60;;
78968;SDS011;68369;51.050;17.018;2023-04-24T10:46:04;6.30;;;4.20;;
78968;SDS011;68369;51.050;17.018;2023-04-24T10:59:23;7.10;;;4.40;;
78968;SDS011;68369;51.050;17.018;2023-04-24T11:02:10;4.90;;;4.00;;
78968;SDS011;68369;51.050;17.018;2023-04-24T11:08:13;7.90;;;5.30;;
78968;SDS011;68369;51.050;17.018;2023-04-24T11:11:03;6.10;;;3.90;;
78968;SDS011;68369;51.050;17.018;2023-04-24T11:19:29;8.60;;;5.30;;
78968;SDS011;68369;51.050;17.018;2023-04-24T11:22:14;7.80;;;4.10;;
78968;SDS011;68369;51.050;17.018;2023-04-24T11:25:02;6.40;;;5.10;;
78968;SDS011;68369;51.050;17.018;2023-04-24T11:34:34;7.70;;;5.40;;
78968;SDS011;68369;51.050;17.018;2023-04-24T11:37:19;5.00;;;3.60;;
78968;SDS011;68369;51.050;17.018;2023-04-24T11:46:20;5.60;;;4.10;;
78968;SDS011;68369;51.050;17.018;2023-04-24T11:58:37;6.30;;;4.70;;
78968;SDS011;68369;51.050;17.018;2023-04-24T12:07:30;6.30;;;4.20;;
78968;SDS011;68369;51.050;17.018;2023-04-24T12:13:44;6.50;;;4.00;;
78968;SDS011;68369;51.050;17.018;2023-04-24T12:16:30;4.20;;;3.70;;
78968;SDS011;68369;51.050;17.018;2023-04-24T12:25:32;4.40;;;3.70;;
78968;SDS011;68369;51.050;17.018;2023-04-24T12:41:16;6.00;;;3.00;;
78968;SDS011;68369;51.050;17.018;2023-04-24T12:46:56;6.50;;;3.60;;
78968;SDS011;68369;51.050;17.018;2023-04-24T12:52:58;4.90;;;3.60;;
78968;SDS011;68369;51.050;17.018;2023-04-24T12:55:45;6.40;;;4.00;;
78968;SDS011;68369;51.050;17.018;2023-04-24T12:58:41;3.50;;;3.00;;
78968;SDS011;68369;51.050;17.018;2023-04-24T13:15:28;4.20;;;2.70;;
78968;SDS011;68369;51.050;17.018;2023-04-24T13:18:18;3.60;;;2.20;;
78968;SDS011;68369;51.050;17.018;2023-04-24T13:21:12;3.10;;;1.60;;
78968;SDS011;68369;51.050;17.018;2023-04-24T13:24:00;1.30;;;0.80;;
78968;SDS011;68369;51.050;17.018;2023-04-24T13:26:46;2.10;;;0.80;;
78968;SDS011;68369;51.050;17.018;2023-04-24T13:29:32;4.80;;;1.00;;
78968;SDS011;68369;51.050;17.018;2023-04-24T13:32:18;2.20;;;0.90;;
78968;SDS011;68369;51.050;17.018;2023-04-24T13:35:03;3.10;;;1.10;;
78968;SDS011;68369;51.050;17.018;2023-04-24T13:37:49;4.40;;;0.90;;
78968;SDS011;68369;51.050;17.018;2023-04-24T13:40:34;3.00;;;1.00;;
78968;SDS011;68369;51.050;17.018;2023-04-24T13:43:21;1.90;;;0.90;;
78968;SDS011;68369;51.050;17.018;2023-04-24T13:46:07;1.70;;;0.90;;
78968;SDS011;68369;51.050;17.018;2023-04-24T13:48:54;1.70;;;0.90;;
78968;SDS011;68369;51.050;17.018;2023-04-24T13:51:40;3.50;;;1.20;;
78968;SDS011;68369;51.050;17.018;2023-04-24T13:54:26;4.20;;;0.80;;
78968;SDS011;68369;51.050;17.018;2023-04-24T13:57:13;2.20;;;0.90;;
78968;SDS011;68369;51.050;17.018;2023-04-24T14:00:28;2.60;;;0.90;;
78968;SDS011;68369;51.050;17.018;2023-04-24T14:03:14;4.10;;;0.80;;
78968;SDS011;68369;51.050;17.018;2023-04-24T14:05:44;2.40;;;0.90;;
78968;SDS011;68369;51.050;17.018;2023-04-24T14:08:32;1.70;;;0.60;;
78968;SDS011;68369;51.050;17.018;2023-04-24T14:11:18;2.80;;;0.80;;
78968;SDS011;68369;51.050;17.018;2023-04-24T14:14:08;1.50;;;0.60;;
78968;SDS011;68369;51.050;17.018;2023-04-24T14:16:53;1.70;;;0.70;;
78968;SDS011;68369;51.050;17.018;2023-04-24T14:19:38;1.20;;;0.60;;
78968;SDS011;68369;51.050;17.018;2023-04-24T14:22:24;4.10;;;1.00;;
78968;SDS011;68369;51.050;17.018;2023-04-24T14:25:10;2.90;;;0.90;;
78968;SDS011;68369;51.050;17.018;2023-04-24T14:27:55;2.10;;;1.00;;
78968;SDS011;68369;51.050;17.018;2023-04-24T14:30:41;2.90;;;0.70;;
78968;SDS011;68369;51.050;17.018;2023-04-24T14:33:29;2.30;;;0.60;;
78968;SDS011;68369;51.050;17.018;2023-04-24T14:36:14;2.10;;;0.80;;
78968;SDS011;68369;51.050;17.018;2023-04-24T14:39:00;3.10;;;0.90;;
78968;SDS011;68369;51.050;17.018;2023-04-24T14:41:49;2.50;;;1.20;;
78968;SDS011;68369;51.050;17.018;2023-04-24T14:44:34;2.50;;;1.20;;
78968;SDS011;68369;51.050;17.018;2023-04-24T14:47:20;6.20;;;1.90;;
78968;SDS011;68369;51.050;17.018;2023-04-24T14:50:08;2.30;;;1.50;;
78968;SDS011;68369;51.050;17.018;2023-04-24T14:52:55;4.00;;;1.70;;
78968;SDS011;68369;51.050;17.018;2023-04-24T14:55:44;1.40;;;0.90;;
78968;SDS011;68369;51.050;17.018;2023-04-24T14:58:30;2.00;;;1.20;;
78968;SDS011;68369;51.050;17.018;2023-04-24T15:01:16;1.20;;;0.90;;
78968;SDS011;68369;51.050;17.018;2023-04-24T15:04:04;2.10;;;0.60;;
78968;SDS011;68369;51.050;17.018;2023-04-24T15:06:54;0.90;;;0.50;;
78968;SDS011;68369;51.050;17.018;2023-04-24T15:09:42;1.30;;;0.40;;
78968;SDS011;68369;51.050;17.018;2023-04-24T15:12:28;0.90;;;0.50;;
78968;SDS011;68369;51.050;17.018;2023-04-24T15:15:21;1.50;;;0.70;;
78968;SDS011;68369;51.050;17.018;2023-04-24T15:18:07;1.30;;;0.70;;
78968;SDS011;68369;51.050;17.018;2023-04-24T15:20:57;1.50;;;0.80;;
78968;SDS011;68369;51.050;17.018;2023-04-24T15:23:43;2.80;;;1.10;;
78968;SDS011;68369;51.050;17.018;2023-04-24T15:26:29;5.00;;;1.70;;
78968;SDS011;68369;51.050;17.018;2023-04-24T15:29:15;3.40;;;1.60;;
78968;SDS011;68369;51.050;17.018;2023-04-24T15:32:00;4.80;;;2.00;;
78968;SDS011;68369;51.050;17.018;2023-04-24T15:34:46;5.00;;;1.80;;
78968;SDS011;68369;51.050;17.018;2023-04-24T15:37:49;3.70;;;2.10;;
78968;SDS011;68369;51.050;17.018;2023-04-24T15:40:35;3.90;;;2.00;;
78968;SDS011;68369;51.050;17.018;2023-04-24T15:43:23;4.10;;;2.00;;
78968;SDS011;68369;51.050;17.018;2023-04-24T15:46:10;3.70;;;1.70;;
78968;SDS011;68369;51.050;17.018;2023-04-24T15:48:55;5.50;;;2.00;;
78968;SDS011;68369;51.050;17.018;2023-04-24T15:51:41;3.90;;;2.20;;
78968;SDS011;68369;51.050;17.018;2023-04-24T15:54:26;3.90;;;1.80;;
78968;SDS011;68369;51.050;17.018;2023-04-24T15:57:12;3.30;;;1.90;;
78968;SDS011;68369;51.050;17.018;2023-04-24T15:59:57;4.60;;;2.00;;
78968;SDS011;68369;51.050;17.018;2023-04-24T16:02:43;3.60;;;1.80;;
78968;SDS011;68369;51.050;17.018;2023-04-24T16:05:29;4.60;;;1.80;;
78968;SDS011;68369;51.050;17.018;2023-04-24T16:08:15;3.70;;;1.90;;
78968;SDS011;68369;51.050;17.018;2023-04-24T16:11:07;3.60;;;1.60;;
78968;SDS011;68369;51.050;17.018;2023-04-24T16:13:52;4.30;;;1.80;;
78968;SDS011;68369;51.050;17.018;2023-04-24T16:16:38;3.40;;;1.70;;
78968;SDS011;68369;51.050;17.018;2023-04-24T16:19:24;2.60;;;1.60;;
78968;SDS011;68369;51.050;17.018;2023-04-24T16:22:10;2.30;;;1.50;;
78968;SDS011;68369;51.050;17.018;2023-04-24T16:24:55;3.40;;;1.90;;
78968;SDS011;68369;51.050;17.018;2023-04-24T16:27:43;3.90;;;2.10;;
78968;SDS011;68369;51.050;17.018;2023-04-24T16:30:28;4.70;;;3.10;;
78968;SDS011;68369;51.050;17.018;2023-04-24T16:33:14;7.00;;;5.00;;
78968;SDS011;68369;51.050;17.018;2023-04-24T16:36:00;9.00;;;4.80;;
78968;SDS011;68369;51.050;17.018;2023-04-24T16:38:45;9.20;;;4.70;;
78968;SDS011;68369;51.050;17.018;2023-04-24T16:41:32;12.80;;;7.10;;
78968;SDS011;68369;51.050;17.018;2023-04-24T16:44:18;25.70;;;13.90;;
78968;SDS011;68369;51.050;17.018;2023-04-24T16:47:07;15.10;;;7.80;;
78968;SDS011;68369;51.050;17.018;2023-04-24T16:49:56;12.60;;;6.30;;
78968;SDS011;68369;51.050;17.018;2023-04-24T16:52:41;8.50;;;4.30;;
78968;SDS011;68369;51.050;17.018;2023-04-24T16:55:27;8.60;;;5.00;;
78968;SDS011;68369;51.050;17.018;2023-04-24T16:58:12;10.60;;;6.50;;
78968;SDS011;68369;51.050;17.018;2023-04-24T17:00:58;7.10;;;4.30;;
78968;SDS011;68369;51.050;17.018;2023-04-24T17:03:43;16.70;;;10.00;;
78968;SDS011;68369;51.050;17.018;2023-04-24T17:06:34;14.80;;;6.90;;
78968;SDS011;68369;51.050;17.018;2023-04-24T17:09:19;4.90;;;2.50;;
78968;SDS011;68369;51.050;17.018;2023-04-24T17:12:08;3.20;;;1.80;;
78968;SDS011;68369;51.050;17.018;2023-04-24T17:14:54;2.70;;;1.40;;
78968;SDS011;68369;51.050;17.018;2023-04-24T17:17:40;4.00;;;2.10;;
78968;SDS011;68369;51.050;17.018;2023-04-24T17:20:29;8.10;;;4.60;;
78968;SDS011;68369;51.050;17.018;2023-04-24T17:23:22;7.50;;;4.10;;
78968;SDS011;68369;51.050;17.018;2023-04-24T17:26:08;6.80;;;3.90;;
78968;SDS011;68369;51.050;17.018;2023-04-24T17:28:55;7.10;;;3.70;;
78968;SDS011;68369;51.050;17.018;2023-04-24T17:31:41;4.10;;;3.00;;
78968;SDS011;68369;51.050;17.018;2023-04-24T17:34:26;6.80;;;2.40;;
78968;SDS011;68369;51.050;17.018;2023-04-24T17:37:12;3.90;;;2.20;;
78968;SDS011;68369;51.050;17.018;2023-04-24T17:39:58;4.70;;;1.90;;
78968;SDS011;68369;51.050;17.018;2023-04-24T17:42:43;3.60;;;2.40;;
78968;SDS011;68369;51.050;17.018;2023-04-24T17:45:29;3.60;;;2.30;;
78968;SDS011;68369;51.050;17.018;2023-04-24T17:48:17;6.20;;;3.10;;
78968;SDS011;68369;51.050;17.018;2023-04-24T17:51:03;6.40;;;4.10;;
78968;SDS011;68369;51.050;17.018;2023-04-24T17:53:49;15.30;;;9.10;;
78968;SDS011;68369;51.050;17.018;2023-04-24T17:56:42;11.40;;;6.80;;
78968;SDS011;68369;51.050;17.018;2023-04-24T18:21:28;11.70;;;7.00;;
78968;SDS011;68369;51.050;17.018;2023-04-24T18:24:17;8.90;;;4.20;;
78968;SDS011;68369;51.050;17.018;2023-04-24T18:27:10;6.80;;;3.80;;
78968;SDS011;68369;51.050;17.018;2023-04-24T18:29:55;7.20;;;3.80;;
78968;SDS011;68369;51.050;17.018;2023-04-24T18:32:41;8.60;;;3.80;;
78968;SDS011;68369;51.050;17.018;2023-04-24T18:35:29;6.00;;;3.70;;
78968;SDS011;68369;51.050;17.018;2023-04-24T18:41:31;7.20;;;3.80;;
78968;SDS011;68369;51.050;17.018;2023-04-24T18:44:18;6.30;;;3.60;;
78968;SDS011;68369;51.050;17.018;2023-04-24T18:47:04;8.50;;;3.50;;
78968;SDS011;68369;51.050;17.018;2023-04-24T18:49:50;6.90;;;3.80;;
78968;SDS011;68369;51.050;17.018;2023-04-24T18:52:35;6.60;;;3.80;;
78968;SDS011;68369;51.050;17.018;2023-04-24T18:58:18;11.70;;;3.80;;
78968;SDS011;68369;51.050;17.018;2023-04-24T19:01:08;6.30;;;3.80;;
78968;SDS011;68369;51.050;17.018;2023-04-24T19:03:58;8.70;;;4.20;;
78968;SDS011;68369;51.050;17.018;2023-04-24T19:06:43;6.60;;;3.20;;
78968;SDS011;68369;51.050;17.018;2023-04-24T19:09:28;8.50;;;4.20;;
78968;SDS011;68369;51.050;17.018;2023-04-24T19:12:14;6.30;;;3.70;;
78968;SDS011;68369;51.050;17.018;2023-04-24T19:15:14;8.40;;;3.90;;
78968;SDS011;68369;51.050;17.018;2023-04-24T19:18:02;8.60;;;3.80;;
78968;SDS011;68369;51.050;17.018;2023-04-24T19:20:47;6.90;;;3.60;;
78968;SDS011;68369;51.050;17.018;2023-04-24T19:23:33;6.40;;;4.00;;
78968;SDS011;68369;51.050;17.018;2023-04-24T19:26:20;7.50;;;4.50;;
78968;SDS011;68369;51.050;17.018;2023-04-24T19:29:07;7.20;;;4.20;;
78968;SDS011;68369;51.050;17.018;2023-04-24T19:31:52;8.20;;;4.50;;
78968;SDS011;68369;51.050;17.018;2023-04-24T19:34:38;7.90;;;5.30;;
78968;SDS011;68369;51.050;17.018;2023-04-24T19:37:25;7.80;;;4.60;;
78968;SDS011;68369;51.050;17.018;2023-04-24T19:40:12;8.90;;;4.60;;
78968;SDS011;68369;51.050;17.018;2023-04-24T19:46:04;7.10;;;4.20;;
78968;SDS011;68369;51.050;17.018;2023-04-24T19:48:51;8.00;;;4.70;;
78968;SDS011;68369;51.050;17.018;2023-04-24T19:51:39;6.70;;;3.80;;
78968;SDS011;68369;51.050;17.018;2023-04-24T20:00:15;7.30;;;4.20;;
78968;SDS011;68369;51.050;17.018;2023-04-24T20:03:03;8.30;;;3.90;;
78968;SDS011;68369;51.050;17.018;2023-04-24T20:05:57;6.80;;;4.00;;
78968;SDS011;68369;51.050;17.018;2023-04-24T20:11:26;6.20;;;3.30;;
78968;SDS011;68369;51.050;17.018;2023-04-24T20:17:04;6.00;;;3.50;;
78968;SDS011;68369;51.050;17.018;2023-04-24T20:19:50;9.00;;;3.50;;
78968;SDS011;68369;51.050;17.018;2023-04-24T20:31:30;3.80;;;1.70;;
78968;SDS011;68369;51.050;17.018;2023-04-24T20:34:16;4.00;;;2.40;;
78968;SDS011;68369;51.050;17.018;2023-04-24T20:37:01;3.80;;;2.30;;
78968;SDS011;68369;51.050;17.018;2023-04-24T20:39:47;8.10;;;4.70;;
78968;SDS011;68369;51.050;17.018;2023-04-24T20:45:53;6.60;;;2.90;;
78968;SDS011;68369;51.050;17.018;2023-04-24T20:48:39;5.70;;;3.70;;
78968;SDS011;68369;51.050;17.018;2023-04-24T20:51:25;4.00;;;2.80;;
78968;SDS011;68369;51.050;17.018;2023-04-24T20:54:11;4.90;;;3.40;;
78968;SDS011;68369;51.050;17.018;2023-04-24T20:56:57;8.20;;;4.70;;
78968;SDS011;68369;51.050;17.018;2023-04-24T20:59:42;12.60;;;6.40;;
78968;SDS011;68369;51.050;17.018;2023-04-24T21:02:27;8.30;;;4.40;;
78968;SDS011;68369;51.050;17.018;2023-04-24T21:05:13;9.70;;;5.80;;
78968;SDS011;68369;51.050;17.018;2023-04-24T21:07:58;9.10;;;5.40;;
78968;SDS011;68369;51.050;17.018;2023-04-24T21:10:44;8.00;;;5.10;;
78968;SDS011;68369;51.050;17.018;2023-04-24T21:13:29;7.40;;;5.00;;
78968;SDS011;68369;51.050;17.018;2023-04-24T21:19:07;6.60;;;4.10;;
78968;SDS011;68369;51.050;17.018;2023-04-24T21:21:52;7.40;;;4.50;;
78968;SDS011;68369;51.050;17.018;2023-04-24T21:24:37;10.40;;;5.50;;
78968;SDS011;68369;51.050;17.018;2023-04-24T21:27:22;12.60;;;6.20;;
78968;SDS011;68369;51.050;17.018;2023-04-24T21:43:11;7.10;;;3.50;;
78968;SDS011;68369;51.050;17.018;2023-04-24T21:45:56;5.80;;;3.30;;
78968;SDS011;68369;51.050;17.018;2023-04-24T21:48:45;6.00;;;3.10;;
78968;SDS011;68369;51.050;17.018;2023-04-24T21:51:31;7.20;;;4.50;;
78968;SDS011;68369;51.050;17.018;2023-04-24T21:54:17;6.80;;;3.20;;
78968;SDS011;68369;51.050;17.018;2023-04-24T22:06:35;3.20;;;1.80;;
78968;SDS011;68369;51.050;17.018;2023-04-24T22:12:38;5.50;;;1.30;;
78968;SDS011;68369;51.050;17.018;2023-04-24T22:15:28;2.10;;;1.40;;
78968;SDS011;68369;51.050;17.018;2023-04-24T22:18:13;2.60;;;1.60;;
78968;SDS011;68369;51.050;17.018;2023-04-24T22:20:58;2.40;;;1.20;;
78968;SDS011;68369;51.050;17.018;2023-04-24T22:23:44;2.10;;;1.20;;
78968;SDS011;68369;51.050;17.018;2023-04-24T22:26:29;2.80;;;1.70;;
78968;SDS011;68369;51.050;17.018;2023-04-24T22:32:30;2.60;;;1.40;;
78968;SDS011;68369;51.050;17.018;2023-04-24T22:35:17;1.60;;;1.00;;
78968;SDS011;68369;51.050;17.018;2023-04-24T22:40:56;3.30;;;1.40;;
78968;SDS011;68369;51.050;17.018;2023-04-24T22:43:42;2.00;;;1.10;;
78968;SDS011;68369;51.050;17.018;2023-04-24T22:49:20;1.90;;;1.10;;
78968;SDS011;68369;51.050;17.018;2023-04-24T22:52:06;2.80;;;1.00;;
78968;SDS011;68369;51.050;17.018;2023-04-24T22:54:52;4.20;;;1.20;;
78968;SDS011;68369;51.050;17.018;2023-04-24T23:00:26;2.20;;;0.90;;
78968;SDS011;68369;51.050;17.018;2023-04-24T23:06:05;1.80;;;1.00;;
78968;SDS011;68369;51.050;17.018;2023-04-24T23:12:14;2.10;;;0.60;;
78968;SDS011;68369;51.050;17.018;2023-04-24T23:21:08;1.70;;;0.70;;
78968;SDS011;68369;51.050;17.018;2023-04-24T23:24:10;1.30;;;0.70;;
78968;SDS011;68369;51.050;17.018;2023-04-24T23:26:57;2.20;;;1.00;;
78968;SDS011;68369;51.050;17.018;2023-04-24T23:32:52;1.10;;;0.70;;
78968;SDS011;68369;51.050;17.018;2023-04-24T23:35:38;1.40;;;0.70;;
78968;SDS011;68369;51.050;17.018;2023-04-24T23:38:25;2.00;;;0.70;;
78968;SDS011;68369;51.050;17.018;2023-04-24T23:44:07;1.60;;;0.70;;
78968;SDS011;68369;51.050;17.018;2023-04-24T23:46:53;0.90;;;0.50;;
78968;SDS011;68369;51.050;17.018;2023-04-24T23:49:39;1.50;;;0.70;;
78968;SDS011;68369;51.050;17.018;2023-04-24T23:52:25;1.30;;;0.50;;
78968;SDS011;68369;51.050;17.018;2023-04-24T23:55:10;1.50;;;0.50;;
78968;SDS011;68369;51.050;17.018;2023-04-24T23:57:55;2.60;;;0.60;;
